Winston Salem, NC (27109)

9:09 AM EDT on July 27, 2016 (GMT -0400)
Country Club Estates | | Change Station
Active Advisory: Heat Advisory Active Notice: Record Report, Public Information Statement

Elev 892 ft 36.09 °N, 80.30 °W | Updated 9 minutes ago

Mostly Cloudy
Mostly Cloudy
80.7 °F
Feels Like 88 °F
N
1.0
Wind Variable Wind from NW
Gusts 3.0 mph

Today
High -- | Low -- °F
--% Chance of Precip.
Yesterday
High -- | Low -- °F
Precip. -- in
Pressure 30.00 in
Visibility 10.0 miles
Clouds Mostly Cloudy 10000 ft
Mostly Cloudy 12000 ft
Heat Index 88 °F
Dew Point 78 °F
Humidity 92%
Rainfall 0.00 in
Snow Depth Not available.
6:24 AM 8:30 PM
Last Quarter, 43% visible
METAR KINT 271254Z 00000KT 10SM BKN100 BKN120 27/23 A3004 RMK AO2 SLP159 T02720233
Pressure 30.00 in
Visibility 10.0 miles
Clouds Mostly Cloudy 10000 ft
Mostly Cloudy 12000 ft
Heat Index 88 °F
Dew Point 78 °F
Humidity 92%
Rainfall 0.00 in
Snow Depth Not available.
6:24 AM 8:30 PM
Last Quarter, 43% visible
METAR KINT 271254Z 00000KT 10SM BKN100 BKN120 27/23 A3004 RMK AO2 SLP159 T02720233

10-Day Weather Forecast

Almanac

Astronomy

Jul. 27, 2016 Rise Set
Actual Time
Civil Twilight
Nautical Twilight
Astronomical Twilight
Moon
Length of Visible Light
Length of Day
Tomorrow will be .
, % of the Moon is Illuminated

Today's Extremes

State Highs State Lows

Community

WunderPhotos

Upload Photos

1,927,842 photos uploaded!

WunderBlog® & News

Nearby

Air Quality

  Air Quality AQ Index Pollutant
Not available.

Snow Depth

Station Depth Elevation

Earthquake Activity

City Distance Mag. Time & Date
Minimum magnitude displayed is 2.5.

Coastal Water Temperatures

Place Temperature

Stations

Nearby Weather Stations

Station Location Temp. Windchill Dew Point Humidity Wind Precip. Elev Updated Type
                   

Watches & Warnings

Heat Advisory
Issued: 3:44 AM EDT Jul. 27, 2016 – National Weather Service

... Heat advisory in effect from noon today to 8 PM EDT this
evening...

The National Weather Service in Raleigh has issued a heat
advisory... which is in effect from noon today to 8 PM EDT this
evening.

* Temperatures... highs will be in the mid to upper 90s.

* Heat indices... 102 to 106 degrees.

* Impacts... the accumulative effects of the heat and humidity
will lead to an increased risk of heat related illnesses...
especially among vulnerable individuals such as the sick... the
elderly... those exerting themselves outdoors... and those
without air conditioning.

Precautionary/preparedness actions...

A heat advisory means that hot temperatures and high humidity
will create a situation in which heat illnesses are possible.
Drink plenty of fluids... stay in an air-conditioned room... stay
out of the sun... and check up on relatives and neighbors.